Portada
METAR-TAF:

METAR-TAF

Aeropuertos :

Ghriss, Argelia

latitud: 35-12N, longitud: 000-08E, altitud: 514 m

Observación

El informe se hizo hace 35 minutos, a las 01:00 UTC
Viento 6 kt del este
Temperatura 12°C
Humedad 76%
Presión 1018 hPa
Visibilidad: 8000 m

METAR: DAOV 020100Z 10006KT 8000 NSC 12/08 Q1018

Hora: 02:35 (01:35 UTC)

Pronóstico

El informe se hizo hace 2 horas y 35 minutos, a las 23:00 UTC
Pronóstico válido del 02 a las 00 UTC al 02 a las 09 UTC
Viento 2 kt con dirección variable
Visibilidad: 8000 m
Probabilidad 40% :
Temporalmente
del 02 a las 04 UTC al 02 a las 06 UTC
Visibilidad: 4000 m
neblina

TAF: DAOV 012300Z 0200/0209 VRB02KT 8000 NSC PROB40 TEMPO 0204/0206 4000 BR

Observaciones y pronósticos meteorológicos de más de 4000 aeropuertos (mensajes METAR y TAF).

Los puntos amarillos y rojos representan las estaciones disponibles.

Ponga el ratón en el punto deseado para ver el nombre de la estación.

Haga clic para ver las observaciones y los pronósticos meteorológicos.

Para cambiar el mapa : haga clic en los botones verdes con una cruz de color negro para hacer un zoom, en el botón verde con un guión para alejar o en las flechas verdes para mapas adyacentes.


METAR-TAF: